Time;durP1;ratioP1;P1;durP2;ratioP2;P2;SDS_P1;SDS_P2;PMS_P1;PMS_P2;Temp;Humidity;BMP_temperature;BMP_pressure;BME280_temperature;BME280_humidity;BME280_pressure;Samples;Min_cycle;Max_cycle;Signal;HPM_P1;HPM_P2
2022/06/11 00:00:45;;;;;;;25.05;9.02;;;;;;;15.79;100.00;92545.56;5173583;27;20038;-88
2022/06/11 00:03:12;;;;;;;12.98;8.00;;;;;;;15.81;100.00;92541.69;5173368;27;20035;-88
2022/06/11 00:05:39;;;;;;;8.80;6.88;;;;;;;15.84;100.00;92545.59;5173209;27;20046;-85
2022/06/11 00:08:07;;;;;;;8.85;6.90;;;;;;;15.74;100.00;92547.13;5171735;27;20097;-87
2022/06/11 00:10:35;;;;;;;11.23;7.35;;;;;;;15.75;100.00;92534.97;5171688;27;20043;-88
2022/06/11 00:13:02;;;;;;;10.23;7.53;;;;;;;15.88;100.00;92537.03;5173300;27;20065;-87
2022/06/11 00:15:31;;;;;;;8.45;6.68;;;;;;;15.76;100.00;92515.81;5172869;27;20046;-85
2022/06/11 00:17:58;;;;;;;8.65;6.75;;;;;;;15.77;100.00;92533.66;5173042;27;20046;-86
2022/06/11 00:20:28;;;;;;;9.52;6.35;;;;;;;15.63;100.00;92515.28;5171684;27;20403;-86
2022/06/11 00:22:55;;;;;;;9.63;6.82;;;;;;;15.76;100.00;92526.16;5173012;27;20046;-88
2022/06/11 00:25:22;;;;;;;9.55;6.70;;;;;;;15.57;100.00;92523.28;5173005;27;20061;-85
2022/06/11 00:27:49;;;;;;;9.90;7.00;;;;;;;15.70;100.00;92540.13;5170871;27;20107;-84
2022/06/11 00:30:20;;;;;;;9.30;6.55;;;;;;;15.61;100.00;92534.69;5172644;27;20090;-86
2022/06/11 00:32:49;;;;;;;10.60;6.95;;;;;;;15.59;100.00;92531.56;5172813;27;20053;-86
2022/06/11 00:35:16;;;;;;;9.32;7.07;;;;;;;15.52;100.00;92536.22;5172615;27;20062;-85
2022/06/11 00:37:44;;;;;;;10.68;6.97;;;;;;;15.52;100.00;92536.22;5172522;27;20125;-83
2022/06/11 00:40:16;;;;;;;10.25;7.43;;;;;;;15.59;100.00;92534.16;5172500;27;20069;-84
2022/06/11 00:42:43;;;;;;;8.93;6.88;;;;;;;15.73;100.00;92540.41;5172391;27;20073;-83
2022/06/11 00:45:24;;;;;;;8.93;6.85;;;;;;;15.50;100.00;92523.53;5172120;27;20102;-84
2022/06/11 00:47:56;;;;;;;11.63;7.32;;;;;;;15.61;100.00;92538.03;5171613;27;20058;-85
2022/06/11 00:50:29;;;;;;;9.63;7.32;;;;;;;15.71;100.00;92536.50;5172432;27;20046;-86
2022/06/11 00:52:59;;;;;;;8.65;6.63;;;;;;;15.78;100.00;92544.78;5171183;27;20133;-84
2022/06/11 00:55:30;;;;;;;9.48;7.35;;;;;;;15.77;100.00;92533.66;5170704;27;20053;-84
2022/06/11 00:58:09;;;;;;;10.27;7.13;;;;;;;15.73;100.00;92529.25;5171256;27;20524;-84
2022/06/11 01:00:41;;;;;;;11.45;7.72;;;;;;;15.61;100.00;92519.16;5172065;27;20060;-84
2022/06/11 01:03:12;;;;;;;10.75;7.22;;;;;;;15.69;100.00;92530.81;5172053;27;20042;-85
2022/06/11 01:05:44;;;;;;;9.35;7.18;;;;;;;15.19;100.00;92493.22;5171201;27;20403;-86
2022/06/11 01:08:33;;;;;;;9.23;6.82;;;;;;;15.48;100.00;92525.63;5172544;27;20042;-86
2022/06/11 01:11:16;;;;;;;10.07;7.50;;;;;;;15.55;100.00;92515.03;5171094;27;20043;-87
2022/06/11 01:13:56;;;;;;;10.65;7.68;;;;;;;15.64;100.00;92516.03;5171238;27;20050;-86
2022/06/11 01:16:29;;;;;;;11.18;8.15;;;;;;;15.50;100.00;92498.44;5172175;27;20053;-86
2022/06/11 01:19:05;;;;;;;11.05;7.43;;;;;;;15.54;100.00;92510.84;5170832;27;20046;-85
2022/06/11 01:21:41;;;;;;;10.63;7.45;;;;;;;15.28;100.00;92503.81;5171495;27;20540;-88
2022/06/11 01:24:38;;;;;;;10.20;7.78;;;;;;;15.07;100.00;92503.81;5172586;27;20050;-85
2022/06/11 01:27:35;;;;;;;10.43;7.72;;;;;;;14.94;100.00;92486.16;5171453;27;20066;-85
2022/06/11 01:30:08;;;;;;;11.98;8.48;;;;;;;14.90;100.00;92493.66;5168457;27;20130;-85
2022/06/11 01:32:53;;;;;;;10.70;7.85;;;;;;;14.84;100.00;92492.09;5171008;27;20050;-85
2022/06/11 01:35:33;;;;;;;11.65;7.97;;;;;;;14.80;100.00;92494.41;5172348;27;20090;-83
2022/06/11 01:38:06;;;;;;;12.20;8.75;;;;;;;14.80;100.00;92491.81;5169866;27;20049;-85
2022/06/11 01:40:43;;;;;;;10.98;7.40;;;;;;;14.71;100.00;92482.97;5170521;27;20042;-86
2022/06/11 01:43:18;;;;;;;11.85;8.48;;;;;;;14.64;100.00;92461.75;5170868;27;20038;-84
2022/06/11 01:45:47;;;;;;;9.38;6.55;;;;;;;14.73;100.00;92488.66;5172262;27;20073;-83
2022/06/11 01:48:18;;;;;;;9.43;6.68;;;;;;;14.78;100.00;92488.72;5172016;27;20215;-82
2022/06/11 01:50:53;;;;;;;10.40;6.85;;;;;;;14.85;100.00;92482.53;5171827;27;20050;-82
2022/06/11 01:53:42;;;;;;;9.23;5.93;;;;;;;14.79;100.00;92485.09;5170111;27;20479;-87
2022/06/11 01:56:30;;;;;;;8.20;5.97;;;;;;;14.81;100.00;92483.03;5170066;27;20046;-81
2022/06/11 01:59:11;;;;;;;7.25;4.70;;;;;;;14.33;100.00;92408.13;5170667;27;20129;-85
2022/06/11 02:01:56;;;;;;;8.20;5.40;;;;;;;14.87;100.00;92483.84;5170002;27;20440;-82
2022/06/11 02:04:36;;;;;;;6.75;4.10;;;;;;;14.84;100.00;92484.31;5168073;27;20042;-85
2022/06/11 02:07:10;;;;;;;5.47;4.15;;;;;;;14.85;100.00;92478.13;5171215;27;20053;-83
2022/06/11 02:09:51;;;;;;;5.70;4.03;;;;;;;14.88;100.00;92484.59;5171282;27;20034;-83
2022/06/11 02:12:24;;;;;;;6.70;4.55;;;;;;;14.86;100.00;92481.50;5170771;27;20057;-82
2022/06/11 02:14:56;;;;;;;5.82;4.28;;;;;;;14.87;100.00;92491.59;5171263;27;20042;-82
2022/06/11 02:17:27;;;;;;;6.55;4.43;;;;;;;14.87;100.00;92493.38;5171629;27;20038;-84
2022/06/11 02:19:58;;;;;;;7.10;5.00;;;;;;;14.83;100.00;92487.94;5169583;27;20053;-83
2022/06/11 02:22:29;;;;;;;5.90;4.35;;;;;;;14.79;100.00;92492.06;5171494;27;20038;-82
2022/06/11 02:25:02;;;;;;;6.07;5.05;;;;;;;14.79;100.00;92494.66;5171516;27;20043;-82
2022/06/11 02:27:32;;;;;;;6.78;4.68;;;;;;;14.62;100.00;92481.91;5169663;27;21100;-83
2022/06/11 02:29:59;;;;;;;6.75;5.10;;;;;;;14.76;100.00;92495.94;5170526;27;20049;-85
2022/06/11 02:32:32;;;;;;;7.25;4.88;;;;;;;14.74;100.00;92499.78;5171744;27;20062;-84
2022/06/11 02:35:11;;;;;;;;;;;;;;;;;;;;;
2022/06/11 02:37:41;;;;;;;6.07;4.20;;;;;;;15.01;100.00;92515.16;5165118;27;20488;-89
2022/06/11 02:40:23;;;;;;;;;;;;;;;;;;;;;
2022/06/11 02:42:55;;;;;;;6.90;5.10;;;;;;;15.31;100.00;92523.25;5166958;27;20050;-88
2022/06/11 02:45:24;;;;;;;7.30;4.78;;;;;;;15.26;100.00;92490.38;5170909;27;20042;-87
2022/06/11 02:47:56;;;;;;;6.28;4.47;;;;;;;15.47;100.00;92506.72;5169489;27;20059;-87
2022/06/11 02:50:26;;;;;;;7.68;4.38;;;;;;;15.69;100.00;92516.06;5170087;27;20050;-87
2022/06/11 02:53:06;;;;;;;6.32;4.38;;;;;;;15.80;100.00;92524.63;5169723;27;20102;-87
2022/06/11 02:55:38;;;;;;;6.22;3.92;;;;;;;15.84;100.00;92524.88;5170887;27;20042;-87
2022/06/11 02:58:14;;;;;;;6.95;5.00;;;;;;;15.92;100.00;92528.75;5169174;27;20381;-86
2022/06/11 03:00:45;;;;;;;6.85;5.00;;;;;;;15.94;100.00;92537.06;5170072;27;20090;-86
2022/06/11 03:03:13;;;;;;;5.88;3.92;;;;;;;15.83;100.00;92526.66;5171478;27;20108;-86
2022/06/11 03:05:42;;;;;;;6.53;4.25;;;;;;;15.82;100.00;92534.69;5169702;27;20042;-85
2022/06/11 03:08:09;;;;;;;7.97;4.65;;;;;;;15.87;100.00;92537.28;5172337;27;20042;-86
2022/06/11 03:10:37;;;;;;;8.60;4.95;;;;;;;15.95;100.00;92541.19;5174915;27;20046;-86
2022/06/11 03:13:05;;;;;;;5.57;4.10;;;;;;;15.96;100.00;92540.19;5174831;27;20038;-86
2022/06/11 03:15:32;;;;;;;7.00;4.43;;;;;;;15.92;100.00;92542.47;5174772;27;20050;-84
2022/06/11 03:17:59;;;;;;;7.65;4.75;;;;;;;15.99;100.00;92537.06;5174935;27;20095;-85
2022/06/11 03:20:31;;;;;;;5.30;4.10;;;;;;;15.63;100.00;92524.84;5173110;27;20038;-85
2022/06/11 03:22:58;;;;;;;5.50;3.88;;;;;;;15.36;100.00;92525.84;5173292;27;20052;-84
2022/06/11 03:25:26;;;;;;;6.00;4.22;;;;;;;15.33;100.00;92544.47;5174600;27;20496;-87
2022/06/11 03:27:53;;;;;;;5.80;4.35;;;;;;;15.32;100.00;92543.69;5174767;27;20096;-84
2022/06/11 03:30:20;;;;;;;7.00;4.80;;;;;;;15.16;100.00;92547.28;5174478;27;20065;-85
2022/06/11 03:32:47;;;;;;;6.32;4.53;;;;;;;15.00;100.00;92542.03;5174647;27;20038;-84
2022/06/11 03:35:14;;;;;;;6.53;4.50;;;;;;;15.06;100.00;92535.09;5172921;27;20046;-85
2022/06/11 03:37:43;;;;;;;6.47;4.63;;;;;;;15.05;100.00;92538.72;5174320;27;20046;-86
2022/06/11 03:40:12;;;;;;;6.57;4.50;;;;;;;15.14;100.00;92542.34;5174752;27;20073;-86
2022/06/11 03:42:38;;;;;;;5.40;4.15;;;;;;;15.25;100.00;92555.31;5174777;27;20042;-84
2022/06/11 03:45:07;;;;;;;6.28;4.22;;;;;;;15.42;100.00;92555.88;5174387;27;20050;-85
2022/06/11 03:47:36;;;;;;;6.03;4.47;;;;;;;15.47;100.00;92553.28;5172590;27;20042;-85
2022/06/11 03:50:04;;;;;;;7.82;5.18;;;;;;;15.44;100.00;92530.53;5172563;27;20069;-86
2022/06/11 03:52:30;;;;;;;6.60;4.03;;;;;;;15.55;100.00;92549.44;5172660;27;20049;-84
2022/06/11 03:54:59;;;;;;;6.88;4.38;;;;;;;15.60;100.00;92554.63;5174166;27;20528;-86
2022/06/11 03:57:27;;;;;;;6.20;4.00;;;;;;;15.36;100.00;92513.69;5171781;27;20077;-85
2022/06/11 03:59:54;;;;;;;5.72;3.50;;;;;;;15.62;100.00;92556.94;5172915;27;20500;-85
2022/06/11 04:02:21;;;;;;;4.43;3.40;;;;;;;15.34;100.00;92556.38;5171920;27;20042;-85
2022/06/11 04:04:48;;;;;;;5.47;3.30;;;;;;;15.30;100.00;92557.91;5172646;27;20098;-86
2022/06/11 04:07:15;;;;;;;4.47;3.08;;;;;;;15.30;100.00;92557.91;5173378;27;20095;-84
2022/06/11 04:09:45;;;;;;;6.40;3.20;;;;;;;15.42;100.00;92545.50;5166621;27;20051;-85
2022/06/11 04:12:15;;;;;;;5.00;3.53;;;;;;;15.57;100.00;92554.34;5163702;27;20499;-84
2022/06/11 04:14:43;;;;;;;8.25;3.70;;;;;;;15.57;100.00;92544.00;5165599;27;20143;-84
2022/06/11 04:17:15;;;;;;;4.90;3.50;;;;;;;15.84;100.00;92561.13;5164443;27;20046;-84
2022/06/11 04:19:45;;;;;;;4.88;3.47;;;;;;;15.98;100.00;92564.78;5167006;27;20043;-84
2022/06/11 04:22:15;;;;;;;6.50;3.80;;;;;;;16.09;100.00;92562.19;5165386;27;20046;-84
2022/06/11 04:24:42;;;;;;;5.57;2.95;;;;;;;16.22;100.00;92566.84;5171664;27;20049;-84
2022/06/11 04:27:11;;;;;;;4.68;3.03;;;;;;;16.26;100.00;92564.53;5164567;27;20042;-84
2022/06/11 04:29:43;;;;;;;4.35;2.67;;;;;;;16.28;100.00;92572.78;5169735;27;20560;-85
2022/06/11 04:32:15;;;;;;;5.68;3.70;;;;;;;16.17;100.00;92577.97;5171332;27;20042;-86
2022/06/11 04:34:43;;;;;;;5.28;3.78;;;;;;;15.60;100.00;92559.78;5171064;27;20504;-86
2022/06/11 04:37:13;;;;;;;13.80;5.38;;;;;;;15.58;100.00;92576.63;5173458;27;20065;-85
2022/06/11 04:39:41;;;;;;;5.80;3.85;;;;;;;15.49;100.00;92576.34;5170798;27;20090;-85
2022/06/11 04:42:09;;;;;;;4.93;3.47;;;;;;;15.18;100.00;92527.13;5171103;27;20500;-83
2022/06/11 04:44:36;;;;;;;6.38;3.65;;;;;;;15.32;100.00;92571.41;5172314;27;20060;-86
2022/06/11 04:47:05;;;;;;;5.30;3.67;;;;;;;15.07;100.00;92576.22;5173242;27;20759;-87
2022/06/11 04:49:32;;;;;;;6.82;4.78;;;;;;;15.03;100.00;92569.19;5172852;27;20042;-86
2022/06/11 04:51:59;;;;;;;6.20;5.05;;;;;;;14.86;100.00;92569.41;5172452;27;20042;-84
2022/06/11 04:54:26;;;;;;;7.78;5.55;;;;;;;14.90;100.00;92573.81;5172961;27;20042;-88
2022/06/11 04:56:53;;;;;;;8.98;5.38;;;;;;;14.59;100.00;92549.59;5172606;27;20049;-89
2022/06/11 04:59:22;;;;;;;8.07;4.80;;;;;;;14.39;100.00;92553.59;5172824;27;20137;-89
2022/06/11 05:01:49;;;;;;;10.23;5.90;;;;;;;14.69;100.00;92586.59;5172637;27;20087;-87
2022/06/11 05:04:17;;;;;;;7.40;5.60;;;;;;;14.67;100.00;92606.75;5172874;27;20053;-88
2022/06/11 05:06:47;;;;;;;7.82;4.70;;;;;;;14.74;100.00;92603.16;5171026;27;20045;-89
2022/06/11 05:09:33;;;;;;;;;;;;;;;;;;;;;
2022/06/11 05:12:07;;;;;;;7.60;5.75;;;;;;;14.81;100.00;92608.91;5164940;27;20046;-89
2022/06/11 05:14:37;;;;;;;8.13;5.38;;;;;;;14.38;100.00;92564.97;5171141;27;20077;-90
2022/06/11 05:17:09;;;;;;;23.50;10.85;;;;;;;14.65;100.00;92610.63;5170988;27;20407;-89
2022/06/11 05:19:38;;;;;;;8.25;5.40;;;;;;;14.72;100.00;92623.34;5172400;27;20556;-89
2022/06/11 05:22:06;;;;;;;10.10;5.75;;;;;;;14.67;100.00;92629.22;5172689;27;20077;-87
2022/06/11 05:24:33;;;;;;;69.70;29.63;;;;;;;14.78;100.00;92624.94;5170478;27;20045;-87
2022/06/11 05:27:04;;;;;;;14.10;7.18;;;;;;;14.66;100.00;92630.25;5172466;27;20062;-87
2022/06/11 05:29:35;;;;;;;6.93;5.03;;;;;;;14.20;100.00;92582.41;5170349;27;20046;-87
2022/06/11 05:32:02;;;;;;;4.97;3.85;;;;;;;14.57;100.00;92635.13;5170153;27;20495;-85
2022/06/11 05:34:30;;;;;;;5.68;3.55;;;;;;;14.61;100.00;92638.78;5171877;27;20038;-84
2022/06/11 05:36:59;;;;;;;7.15;4.90;;;;;;;14.65;100.00;92636.47;5172068;27;20054;-84
2022/06/11 05:39:27;;;;;;;8.40;5.53;;;;;;;14.56;100.00;92629.19;5172270;27;20046;-84
2022/06/11 05:41:54;;;;;;;6.30;4.45;;;;;;;14.63;100.00;92638.53;5172143;27;20057;-85
2022/06/11 05:44:22;;;;;;;4.97;3.80;;;;;;;14.26;100.00;92594.34;5172177;27;20049;-90
2022/06/11 05:46:49;;;;;;;4.57;3.67;;;;;;;14.57;100.00;92640.28;5169986;27;20094;-82
2022/06/11 05:49:19;;;;;;;5.18;3.25;;;;;;;14.62;100.00;92644.75;5172219;27;20503;-83
2022/06/11 05:51:52;;;;;;;4.32;2.92;;;;;;;14.58;100.00;92641.84;5172226;27;20149;-83
2022/06/11 05:54:25;;;;;;;4.55;3.20;;;;;;;14.66;100.00;92656.13;5171621;27;20042;-86
2022/06/11 05:56:52;;;;;;;3.72;3.08;;;;;;;14.80;100.00;92646.16;5170551;27;20042;-83
2022/06/11 05:59:23;;;;;;;4.32;2.78;;;;;;;14.93;100.00;92656.06;5171593;27;20038;-84
2022/06/11 06:01:51;;;;;;;4.25;2.95;;;;;;;14.95;100.00;92654.00;5170295;27;20125;-84
2022/06/11 06:04:18;;;;;;;3.83;2.72;;;;;;;15.01;100.00;92651.44;5171850;27;20046;-83
2022/06/11 06:06:45;;;;;;;3.78;2.83;;;;;;;14.85;100.00;92653.94;5172176;27;20046;-83
2022/06/11 06:09:12;;;;;;;5.78;3.47;;;;;;;14.98;100.00;92655.31;5171619;27;20057;-84
2022/06/11 06:11:40;;;;;;;10.10;6.85;;;;;;;14.95;100.00;92666.94;5171736;27;20053;-84
2022/06/11 06:14:07;;;;;;;24.00;14.30;;;;;;;15.05;100.00;92666.22;5171840;27;20484;-84
2022/06/11 06:16:35;;;;;;;7.47;5.28;;;;;;;15.04;100.00;92674.25;5167549;27;20090;-85
2022/06/11 06:19:02;;;;;;;6.00;3.40;;;;;;;14.77;100.00;92662.19;5171664;27;20399;-87
2022/06/11 06:21:31;;;;;;;6.18;3.00;;;;;;;14.77;100.00;92682.84;5171389;27;20046;-85
2022/06/11 06:23:58;;;;;;;5.20;2.88;;;;;;;14.70;100.00;92672.69;5171583;27;20046;-87
2022/06/11 06:26:24;;;;;;;5.47;2.70;;;;;;;14.69;100.00;92666.72;5171215;27;20521;-86
2022/06/11 06:28:53;;;;;;;4.47;2.70;;;;;;;14.68;100.00;92670.34;5171760;27;20046;-89
2022/06/11 06:31:23;;;;;;;4.18;2.70;;;;;;;14.72;100.00;92672.44;5160667;27;20038;-89
2022/06/11 06:33:53;;;;;;;5.50;3.88;;;;;;;14.65;100.00;92672.66;5163997;27;20055;-88
2022/06/11 06:36:32;;;;;;;3.88;2.85;;;;;;;14.50;100.00;92653.44;5164922;27;20046;-89
2022/06/11 06:39:06;;;;;;;4.45;2.97;;;;;;;14.51;100.00;92643.88;5160996;27;20042;-90
2022/06/11 06:41:41;;;;;;;4.97;3.25;;;;;;;14.63;100.00;92667.72;5164244;27;20042;-88
2022/06/11 07:16:44;;;;;;;;;;;;;;;15.37;100.00;92685.28;4876927;29;20085;-89
2022/06/11 07:19:18;;;;;;;4.65;3.15;;;;;;;15.29;100.00;92667.63;4932967;28;19922;-87
2022/06/11 07:21:49;;;;;;;4.10;3.17;;;;;;;15.46;100.00;92680.38;5061328;27;20061;-89
2022/06/11 07:24:19;;;;;;;4.07;3.00;;;;;;;15.41;100.00;92668.19;5173692;27;20050;-88
2022/06/11 07:26:50;;;;;;;4.40;3.13;;;;;;;15.54;100.00;92679.09;5173065;27;20046;-88
2022/06/11 07:29:23;;;;;;;5.07;3.25;;;;;;;15.59;100.00;92686.88;5173673;27;20046;-87
2022/06/11 07:31:55;;;;;;;4.88;3.55;;;;;;;15.84;100.00;92695.78;5174602;27;20047;-88
2022/06/11 07:34:24;;;;;;;5.32;3.75;;;;;;;15.88;100.00;92671.69;5175067;27;20839;-89
2022/06/11 07:36:51;;;;;;;5.53;3.45;;;;;;;16.32;100.00;92700.03;5173191;27;20046;-89
2022/06/11 07:39:18;;;;;;;4.43;3.15;;;;;;;16.48;100.00;92711.22;5174594;27;20046;-88
2022/06/11 07:41:45;;;;;;;5.57;3.20;;;;;;;16.47;100.00;92704.47;5172538;27;20035;-88
2022/06/11 07:44:11;;;;;;;4.93;3.30;;;;;;;16.62;100.00;92724.44;5174243;27;20423;-84
2022/06/11 07:46:40;;;;;;;6.55;3.67;;;;;;;16.86;100.00;92723.91;5174202;27;20042;-87
2022/06/11 07:49:10;;;;;;;4.60;3.40;;;;;;;17.09;100.00;92718.22;5172237;27;20133;-89
2022/06/11 07:51:37;;;;;;;5.80;3.28;;;;;;;17.15;100.00;92710.41;5173961;27;20576;-87
2022/06/11 07:54:04;;;;;;;4.88;3.50;;;;;;;17.29;100.00;92721.81;5174043;27;20476;-85
2022/06/11 07:56:32;;;;;;;4.68;3.20;;;;;;;17.33;100.00;92722.06;5174368;27;20047;-83
2022/06/11 07:59:01;;;;;;;6.63;3.67;;;;;;;17.23;100.00;92682.09;5173732;27;20389;-88
2022/06/11 08:01:29;;;;;;;4.80;3.42;;;;;;;17.65;100.00;92720.16;5174062;27;20555;-85
2022/06/11 08:03:56;;;;;;;5.20;3.90;;;;;;;17.98;100.00;92708.31;5173701;27;20050;-87
2022/06/11 08:06:24;;;;;;;5.85;3.20;;;;;;;17.86;100.00;92707.84;5173774;27;20052;-85
2022/06/11 08:08:51;;;;;;;6.38;4.05;;;;;;;18.37;100.00;92713.88;5174045;27;20054;-86
2022/06/11 08:11:21;;;;;;;5.70;3.88;;;;;;;18.15;100.00;92712.44;5173187;27;20044;-85
2022/06/11 08:13:48;;;;;;;4.93;3.53;;;;;;;18.09;100.00;92729.84;5171899;27;20611;-85
2022/06/11 08:16:14;;;;;;;5.28;3.60;;;;;;;17.85;100.00;92721.88;5173784;27;20484;-84
2022/06/11 08:18:42;;;;;;;5.40;3.80;;;;;;;18.07;100.00;92733.78;5173553;27;20098;-86
2022/06/11 08:21:09;;;;;;;4.43;2.83;;;;;;;17.89;100.00;92713.31;5173920;27;20088;-88
2022/06/11 08:23:39;;;;;;;5.95;3.70;;;;;;;17.97;100.00;92721.59;5173686;27;20393;-88
2022/06/11 08:26:06;;;;;;;7.38;3.92;;;;;;;18.13;100.00;92710.09;5172102;27;20070;-83
2022/06/11 08:28:32;;;;;;;7.00;3.67;;;;;;;18.08;100.00;92728.31;5171637;27;20403;-86
2022/06/11 08:31:04;;;;;;;5.10;3.42;;;;;;;18.07;100.00;92728.56;5173525;27;20381;-82
2022/06/11 08:33:32;;;;;;;4.95;3.20;;;;;;;17.92;100.00;92716.41;5173688;27;20048;-83
2022/06/11 08:35:59;;;;;;;4.85;3.28;;;;;;;18.13;100.00;92733.47;5173595;27;20042;-82
2022/06/11 08:38:25;;;;;;;4.35;2.65;;;;;;;17.97;100.00;92739.78;5170995;27;20091;-82
2022/06/11 08:40:55;;;;;;;4.15;2.83;;;;;;;17.77;100.00;92736.19;5173222;27;20042;-85
2022/06/11 08:43:26;;;;;;;5.55;3.22;;;;;;;17.83;100.00;92719.53;5173120;27;20043;-87
2022/06/11 08:45:55;;;;;;;5.65;3.15;;;;;;;17.96;100.00;92715.59;5173127;27;20091;-82
2022/06/11 08:48:54;;;;;;;5.50;3.22;;;;;;;18.15;100.00;92715.03;5171089;27;20521;-82
2022/06/11 08:51:28;;;;;;;4.43;2.67;;;;;;;18.12;100.00;92720.75;5169558;27;20068;-83
2022/06/11 08:53:59;;;;;;;3.72;2.65;;;;;;;17.93;100.00;92731.75;5166772;27;20059;-82
2022/06/11 08:56:33;;;;;;;5.32;3.45;;;;;;;17.97;100.00;92727.53;5165933;27;20172;-83
2022/06/11 08:59:17;;;;;;;5.05;2.85;;;;;;;17.99;100.00;92717.66;5172101;27;20050;-82
2022/06/11 09:02:10;;;;;;;4.55;3.45;;;;;;;18.11;100.00;92719.19;5173902;27;20046;-82
2022/06/11 09:04:54;;;;;;;5.15;3.17;;;;;;;18.43;100.00;92721.34;5175376;27;20122;-85
2022/06/11 09:07:44;;;;;;;3.78;2.47;;;;;;;18.46;100.00;92727.81;5172613;27;20049;-88
2022/06/11 09:10:34;;;;;;;4.72;2.75;;;;;;;18.37;100.00;92726.84;5172137;27;20042;-85
2022/06/11 09:13:18;;;;;;;3.92;2.60;;;;;;;18.05;100.00;92720.25;5166325;27;20054;-84
2022/06/11 09:15:52;;;;;;;4.63;2.55;;;;;;;18.29;100.00;92731.56;5171309;27;22412;-85
2022/06/11 09:18:46;;;;;;;3.78;2.65;;;;;;;18.56;100.00;92735.56;5170888;27;20453;-85
2022/06/11 09:21:25;;;;;;;3.85;2.40;;;;;;;18.49;100.00;92729.91;5169822;27;20047;-85
2022/06/11 09:24:09;;;;;;;5.32;2.33;;;;;;;19.03;100.00;92722.19;5169877;27;20067;-83
2022/06/11 09:26:46;;;;;;;4.85;2.35;;;;;;;19.70;100.00;92722.56;5170512;27;20049;-83
2022/06/11 09:29:22;;;;;;;4.53;2.45;;;;;;;19.59;100.00;92732.34;5170425;27;20181;-88
2022/06/11 09:31:57;;;;;;;3.97;2.15;;;;;;;19.31;100.00;92690.47;5170294;27;20046;-88
2022/06/11 09:34:32;;;;;;;2.67;1.70;;;;;;;19.18;100.00;92729.13;5170780;27;20050;-87
2022/06/11 09:37:06;;;;;;;8.57;5.35;;;;;;;19.32;100.00;92708.41;5169075;27;20492;-88
2022/06/11 09:39:39;;;;;;;13.98;7.15;;;;;;;19.06;100.00;92716.47;5170341;27;20050;-91
2022/06/11 09:42:31;;;;;;;5.95;3.08;;;;;;;18.94;100.00;92734.25;5170278;27;20046;-83
2022/06/11 09:45:06;;;;;;;4.63;2.83;;;;;;;18.64;100.00;92734.22;5170123;27;20034;-87
2022/06/11 09:47:43;;;;;;;15.47;7.20;;;;;;;18.93;100.00;92722.28;5169829;27;20084;-83
2022/06/11 09:50:22;;;;;;;4.75;3.15;;;;;;;18.92;100.00;92720.72;5169026;27;20285;-86
2022/06/11 09:53:00;;;;;;;11.18;6.13;;;;;;;18.46;100.00;92649.81;5169937;27;21829;-85
2022/06/11 09:55:33;;;;;;;9.57;5.38;;;;;;;19.17;100.00;92722.34;5169915;27;20525;-87
2022/06/11 09:58:25;;;;;;;12.95;6.72;;;;;;;18.93;100.00;92709.28;5170465;27;20445;-88
2022/06/11 10:01:00;;;;;;;14.60;7.55;;;;;;;19.06;100.00;92728.69;5169542;27;20450;-85
2022/06/11 10:03:35;;;;;;;19.53;8.70;;;;;;;19.41;100.00;92737.22;5169621;27;20506;-87
2022/06/11 10:06:07;;;;;;;20.95;10.88;;;;;;;19.25;100.00;92728.00;5169063;27;20408;-85
2022/06/11 10:08:41;;;;;;;16.60;9.32;;;;;;;19.21;100.00;92727.78;5169278;27;20058;-85
2022/06/11 10:11:29;;;;;;;5.13;3.47;;;;;;;19.48;100.00;92714.22;5169495;27;20038;-84
2022/06/11 10:14:28;;;;;;;3.95;2.78;;;;;;;19.66;100.00;92732.78;5170052;27;20045;-84
2022/06/11 10:16:53;;;;;;;4.85;2.97;;;;;;;19.80;100.00;92727.69;5170171;27;20395;-84
2022/06/11 10:19:26;;;;;;;5.50;3.22;;;;;;;19.77;100.00;92729.00;5172267;27;20487;-83
2022/06/11 10:21:59;;;;;;;18.13;7.70;;;;;;;19.80;100.00;92740.72;5173616;27;20506;-92
2022/06/11 10:24:29;;;;;;;8.25;5.47;;;;;;;19.45;100.00;92738.22;5172396;27;20083;-85
2022/06/11 10:27:03;;;;;;;4.97;3.35;;;;;;;19.54;100.00;92730.59;5174425;27;20038;-85
2022/06/11 10:29:36;;;;;;;5.40;2.38;;;;;;;19.56;100.00;92733.69;5173451;27;20095;-83
2022/06/11 10:32:11;;;;;;;4.63;2.28;;;;;;;19.49;100.00;92735.84;5174092;27;20483;-83
2022/06/11 10:34:43;;;;;;;3.67;2.40;;;;;;;19.69;100.00;92736.66;5174699;27;20046;-85
2022/06/11 10:37:16;;;;;;;5.43;3.03;;;;;;;19.52;100.00;92743.09;5173603;27;20055;-84
2022/06/11 10:39:48;;;;;;;4.50;2.85;;;;;;;19.46;100.00;92752.03;5175433;27;20050;-86
2022/06/11 10:42:19;;;;;;;2.72;2.00;;;;;;;19.01;100.00;92752.13;5175615;27;20042;-84
2022/06/11 10:44:50;;;;;;;5.05;2.63;;;;;;;18.98;100.00;92747.47;5175629;27;20042;-85
2022/06/11 10:47:27;;;;;;;3.42;2.03;;;;;;;19.02;100.00;92746.66;5174820;27;20046;-85
2022/06/11 10:50:01;;;;;;;5.93;2.80;;;;;;;18.75;100.00;92755.72;5166513;27;20126;-87
2022/06/11 10:52:38;;;;;;;5.88;2.42;;;;;;;18.68;100.00;92758.63;5175344;27;20077;-84
2022/06/11 10:55:07;;;;;;;3.10;2.13;;;;;;;18.06;100.00;92761.59;5173260;27;20430;-84
2022/06/11 10:57:35;;;;;;;4.13;2.22;;;;;;;17.68;100.00;92764.53;5173310;27;20042;-88
2022/06/11 11:00:06;;;;;;;5.00;2.03;;;;;;;17.41;100.00;92780.47;5175366;27;20042;-88
2022/06/11 11:02:40;;;;;;;3.95;2.42;;;;;;;17.16;100.00;92774.25;5175368;27;20038;-85
2022/06/11 11:05:10;;;;;;;4.35;2.53;;;;;;;16.56;100.00;92768.53;5175268;27;20049;-86
2022/06/11 11:07:46;;;;;;;4.10;2.55;;;;;;;16.58;100.00;92777.84;5173118;27;20042;-82
2022/06/11 11:10:26;;;;;;;5.40;1.90;;;;;;;16.27;100.00;92776.75;5174378;27;20042;-83
2022/06/11 11:12:57;;;;;;;4.40;2.05;;;;;;;16.48;100.00;92784.56;5174139;27;20049;-82
2022/06/11 11:15:27;;;;;;;3.22;2.10;;;;;;;16.48;100.00;92778.63;5174901;27;20042;-84
2022/06/11 11:18:00;;;;;;;4.68;2.25;;;;;;;16.24;100.00;92785.03;5176470;27;20050;-84
2022/06/11 11:20:34;;;;;;;6.13;2.85;;;;;;;15.70;100.00;92768.75;5176030;27;20480;-82
2022/06/11 11:23:17;;;;;;;6.05;3.35;;;;;;;15.69;100.00;92787.91;5176920;27;20137;-83
2022/06/11 11:25:48;;;;;;;3.75;2.40;;;;;;;15.55;100.00;92771.28;5175389;27;20111;-83
2022/06/11 11:31:07;;;;;;;4.20;3.28;;;;;;;15.71;100.00;92783.28;5160400;27;20050;-82
2022/06/11 11:33:37;;;;;;;6.40;3.20;;;;;;;15.61;100.00;92778.03;5175881;27;20045;-83
2022/06/11 11:36:34;;;;;;;12.90;5.43;;;;;;;15.86;100.00;92779.97;5175750;27;20042;-82
2022/06/11 11:39:18;;;;;;;5.32;3.30;;;;;;;15.94;100.00;92746.84;5172979;27;20057;-83
2022/06/11 11:41:55;;;;;;;22.92;9.93;;;;;;;16.22;100.00;92768.19;5175793;27;20042;-82
2022/06/11 11:44:24;;;;;;;22.25;10.48;;;;;;;16.60;100.00;92757.63;5174071;27;20038;-83
2022/06/11 11:46:54;;;;;;;26.83;9.27;;;;;;;16.95;100.00;92769.81;5173531;27;20051;-82
2022/06/11 11:49:28;;;;;;;8.20;4.57;;;;;;;17.12;100.00;92774.00;5174563;27;20412;-84
2022/06/11 11:52:03;;;;;;;6.40;3.42;;;;;;;17.25;100.00;92758.97;5173868;27;20042;-85
2022/06/11 11:54:31;;;;;;;5.93;3.60;;;;;;;17.47;100.00;92772.41;5174648;27;20453;-85
2022/06/11 11:57:02;;;;;;;5.22;3.38;;;;;;;17.71;100.00;92776.22;5174301;27;20050;-84
2022/06/11 11:59:32;;;;;;;4.82;2.67;;;;;;;17.81;100.00;92768.41;5173840;27;20050;-84
2022/06/11 12:02:14;;;;;;;3.80;2.55;;;;;;;17.87;100.00;92761.38;5174042;27;20487;-85
2022/06/11 12:04:50;;;;;;;3.00;2.05;;;;;;;17.74;100.00;92760.13;5173437;27;20043;-85
2022/06/11 12:07:22;;;;;;;5.32;2.40;;;;;;;17.77;100.00;92772.56;5171966;27;20046;-89
2022/06/11 12:09:54;;;;;;;4.10;3.08;;;;;;;17.77;100.00;92773.34;5171996;27;20053;-87
2022/06/11 12:12:31;;;;;;;3.42;2.33;;;;;;;17.67;100.00;92765.59;5172403;27;20130;-86
2022/06/11 12:15:02;;;;;;;3.40;2.40;;;;;;;17.80;100.00;92768.66;5173202;27;20480;-87
2022/06/11 12:17:39;;;;;;;4.85;2.35;;;;;;;17.65;100.00;92765.09;5173831;27;20039;-86
2022/06/11 12:20:40;;;;;;;3.65;1.88;;;;;;;17.69;100.00;92760.13;5172227;27;20051;-87
2022/06/11 12:23:20;;;;;;;3.13;2.08;;;;;;;17.45;100.00;92781.50;5168987;27;20046;-86
2022/06/11 12:25:52;;;;;;;5.63;3.92;;;;;;;17.43;100.00;92773.19;5173486;27;20034;-85